• Join FlightAware (Why Join?)
  • Login
  • US Flag 
06:46PM EDT


 

Airport Tracker/Info


-or-


 

Live Flight TrackerFlight Track Log ✈ AMF1324 ✈ 20-Sep-2013 ✈ KBGM - KBUF

Flight Track Log - Related Links

Times and Time Zones

All times are in EDT time to prevent confusion due to time zone crossing. See the AMF1324 flight status page for this flight to view local times or setup timezone preferences in your user account.

Time Position Orientation Groundspeed Altitude Reporting Facility
EDT Latitude Longitude Course Direction KTS MPH feet Rate Location/Type
08:23AM 42.1631 -75.9800 302° West 262 302 3,600  Level New York Center
08:24AM 42.1597 -76.0553 267° West 208 239 5,500 1,800 Climbing New York Center
08:25AM 42.1542 -76.1333 265° West 224 258 7,200 1,500 Climbing New York Center
08:26AM 42.1822 -76.2000 300° West 208 239 8,500 1,380 Climbing New York Center
08:27AM 42.2100 -76.2750 297° West 208 239 10,000 1,320 Climbing New York Center
08:28AM 42.2375 -76.3558 295° West 222 255 11,200 900 Climbing New York Center
08:29AM 42.4122 -76.7146 302° West  Level Estimated
08:30AM 42.2750 -76.4347 303° West 232 267 11,900  Level Cleveland Center
08:31AM 42.3103 -76.5183 300° West 253 291 11,900  Level Cleveland Center
08:32AM 42.3403 -76.6047 295° West 254 292 11,900  Level Cleveland Center
08:33AM 42.3750 -76.6892 299° West 257 296 11,900  Level Cleveland Center
08:34AM 42.4064 -76.7742 297° West 257 296 11,900  Level Cleveland Center
08:35AM 42.4489 -76.8722 300° West 253 291 11,900  Level Cleveland Center
08:36AM 42.4836 -76.9539 300° West 253 291 11,900  Level Cleveland Center
08:37AM 42.5172 -77.0378 299° West 253 291 11,900  Level Cleveland Center
08:38AM 42.5561 -77.1175 304° West 254 292 11,900  Level Cleveland Center
08:39AM 42.5908 -77.1992 300° West 253 291 11,900  Level Cleveland Center
08:40AM 42.6297 -77.2803 303° West 257 296 11,900  Level Cleveland Center
08:41AM 42.6733 -77.3767 302° West 253 291 11,900  Level Cleveland Center
08:42AM 42.7128 -77.4536 305° West 252 290 11,900  Level Cleveland Center
08:43AM 42.7489 -77.5331 302° West 250 288 11,900  Level Cleveland Center
08:44AM 42.7875 -77.6092 305° West 249 287 11,900  Level Cleveland Center
08:45AM 42.8222 -77.6889 301° West 249 287 11,900  Level Cleveland Center
08:46AM 42.8461 -77.7931 287° West 246 283 12,000 -360 Climbing Cleveland Center
08:47AM 42.8553 -77.8906 277° West 261 300 11,200 -540 Descending Cleveland Center
08:48AM 42.8675 -77.9908 279° West 262 302 11,000 -300 Descending Cleveland Center
08:48AM 42.8656 -77.9875 129° Southeast 259 298 10,900 -1,020 Descending Cleveland Center
08:49AM 42.8758 -78.0508 283° West 258 297 10,400 -1,080 Descending Cleveland Center
08:49AM 42.8792 -78.0922 276° West 261 300 9,800 -1,620 Descending Cleveland Center
08:50AM 42.8847 -78.1486 278° West 262 302 8,800 -1,980 Descending Cleveland Center
08:50AM 42.8894 -78.1958 278° West 261 300 7,800 -2,100 Descending Cleveland Center
08:51AM 42.9117 -78.2397 305° West 265 305 6,700 -2,460 Descending Cleveland Center
08:51AM 42.9311 -78.2836 301° West 264 304 5,300 -2,700 Descending Cleveland Center
08:52AM 42.9517 -78.3289 302° West 256 295 4,000 -1,380 Descending Cleveland Center
08:52AM 42.9625 -78.3692 290° West 239 275 3,900 -240 Descending Cleveland Center
08:53AM 42.9839 -78.4342 294° West 200 230 3,700 -600 Descending Cleveland Center
08:54AM 43.0061 -78.4953 296° West 188 216 2,700 -720 Descending Cleveland Center
08:55AM 43.0247 -78.5678 289° West 188 216 2,300 -300 Descending Cleveland Center
08:56AM 43.0183 -78.6247 261° West 160 184 2,200 -300 Descending Cleveland Center
08:58AM 42.9833 -78.6667 221° Southwest 128 147 1,700 -480 Descending Buffalo TRACON
08:58AM 42.9667 -78.6833 216° Southwest 110 127 1,300 -480 Descending Buffalo TRACON
09:00AM 42.9333 -78.7167 228° Southwest  Level FlightAware Approximate
09:07AM 42.9404 -78.7306 228° Southwest  Level Estimated
09:08AM 42.9404 -78.7306 228° Southwest  Level Estimated